aviador You're here:

KFKL Decoded Metar

FRANKLIN in PA, USA
Report Time2018-04-24 13:56:00
UTC Time2018-04-24 14:19:07
Flight Rules vfr VFR
Wind140° at 15 kt
W.Decomp.*RWY 12: 13.0 kt HW 7.5 kt RCW
RWY 21: 7.5 kt HW 13 kt LCW
W.Rank140° ranks 21
Current wind is above 140° avg. (7.2)
Visibility9999 m
Phenomena:N/A
Clouds:Few 049 Hf
Broken 080 Hf
Expected CloudBase > 3,200 ft AGL from Temp-Dew spread
Ceiling8,000 ft
Temp11°C (ISA -1)
Dew Point03°C (58% RH)
AAT4.1°C
QNH1022 hPa
Density Alt1,234 ft
Elevation1,539 ft
Report Wrong Elevation
Raw Report
KFKL 241356Z AUTO 14015KT 10SM FEW049 BKN080 11/03 A3019 RMK AO2
SLP225 T01060028=

Extra information for KFKL:More info

Metar Taf Metar & Taf Last 4 Metars F.Rules Stats Wind Profile Meteogram Temp Stats Airport Information Weather charts Add Link Nearby VenuesMetar ALERT Operation Metar Decoded Social comments

AIRNAV info for KFKL